sensor_id;sensor_type;location;lat;lon;timestamp;temperature;humidity
45849;DHT22;31567;54.600;9.842;2023-10-31T00:02:03;13.30;99.90
45849;DHT22;31567;54.600;9.842;2023-10-31T00:05:43;13.40;99.90
45849;DHT22;31567;54.600;9.842;2023-10-31T00:09:22;13.40;99.90
45849;DHT22;31567;54.600;9.842;2023-10-31T00:13:02;13.40;99.90
45849;DHT22;31567;54.600;9.842;2023-10-31T00:16:41;13.30;99.90
45849;DHT22;31567;54.600;9.842;2023-10-31T00:20:21;13.40;99.90
45849;DHT22;31567;54.600;9.842;2023-10-31T00:24:01;13.40;99.90
45849;DHT22;31567;54.600;9.842;2023-10-31T00:27:41;13.40;99.90
45849;DHT22;31567;54.600;9.842;2023-10-31T00:31:20;13.40;99.90
45849;DHT22;31567;54.600;9.842;2023-10-31T00:35:00;13.40;99.90
45849;DHT22;31567;54.600;9.842;2023-10-31T00:38:39;13.40;99.90
45849;DHT22;31567;54.600;9.842;2023-10-31T00:42:19;13.40;99.90
45849;DHT22;31567;54.600;9.842;2023-10-31T00:45:58;13.40;99.90
45849;DHT22;31567;54.600;9.842;2023-10-31T00:49:38;13.40;99.90
45849;DHT22;31567;54.600;9.842;2023-10-31T00:53:18;13.40;99.90
45849;DHT22;31567;54.600;9.842;2023-10-31T00:56:57;13.40;99.90
45849;DHT22;31567;54.600;9.842;2023-10-31T01:00:37;13.40;99.90
45849;DHT22;31567;54.600;9.842;2023-10-31T01:04:16;13.40;99.90
45849;DHT22;31567;54.600;9.842;2023-10-31T01:07:56;13.40;99.90
45849;DHT22;31567;54.600;9.842;2023-10-31T01:11:36;13.40;99.90
45849;DHT22;31567;54.600;9.842;2023-10-31T01:15:15;13.40;99.90
45849;DHT22;31567;54.600;9.842;2023-10-31T01:18:55;13.30;99.90
45849;DHT22;31567;54.600;9.842;2023-10-31T01:22:34;13.40;99.90
45849;DHT22;31567;54.600;9.842;2023-10-31T01:26:14;13.40;99.90
45849;DHT22;31567;54.600;9.842;2023-10-31T01:29:53;13.40;99.90
45849;DHT22;31567;54.600;9.842;2023-10-31T01:33:33;13.50;99.90
45849;DHT22;31567;54.600;9.842;2023-10-31T01:37:13;13.50;99.90
45849;DHT22;31567;54.600;9.842;2023-10-31T01:40:53;13.50;99.90
45849;DHT22;31567;54.600;9.842;2023-10-31T01:44:33;13.50;99.90
45849;DHT22;31567;54.600;9.842;2023-10-31T01:48:13;13.50;99.90
45849;DHT22;31567;54.600;9.842;2023-10-31T01:51:52;13.50;99.90
45849;DHT22;31567;54.600;9.842;2023-10-31T01:55:32;13.50;99.90
45849;DHT22;31567;54.600;9.842;2023-10-31T01:59:12;13.40;99.90
45849;DHT22;31567;54.600;9.842;2023-10-31T02:02:52;13.40;99.90
45849;DHT22;31567;54.600;9.842;2023-10-31T02:06:32;13.40;99.90
45849;DHT22;31567;54.600;9.842;2023-10-31T02:10:12;13.40;99.90
45849;DHT22;31567;54.600;9.842;2023-10-31T02:13:51;13.40;99.90
45849;DHT22;31567;54.600;9.842;2023-10-31T02:17:31;13.40;99.90
45849;DHT22;31567;54.600;9.842;2023-10-31T02:21:10;13.40;99.90
45849;DHT22;31567;54.600;9.842;2023-10-31T02:24:50;13.40;99.90
45849;DHT22;31567;54.600;9.842;2023-10-31T02:28:29;13.40;99.90
45849;DHT22;31567;54.600;9.842;2023-10-31T02:32:10;13.30;99.90
45849;DHT22;31567;54.600;9.842;2023-10-31T02:35:49;13.40;99.90
45849;DHT22;31567;54.600;9.842;2023-10-31T02:39:29;13.30;99.90
45849;DHT22;31567;54.600;9.842;2023-10-31T02:43:08;13.40;99.90
45849;DHT22;31567;54.600;9.842;2023-10-31T02:46:48;13.30;99.90
45849;DHT22;31567;54.600;9.842;2023-10-31T02:50:28;13.30;99.90
45849;DHT22;31567;54.600;9.842;2023-10-31T02:54:07;13.30;99.90
45849;DHT22;31567;54.600;9.842;2023-10-31T02:57:47;13.40;99.90
45849;DHT22;31567;54.600;9.842;2023-10-31T03:01:29;13.40;99.90
45849;DHT22;31567;54.600;9.842;2023-10-31T03:05:09;13.40;99.90
45849;DHT22;31567;54.600;9.842;2023-10-31T03:08:49;13.30;99.90
45849;DHT22;31567;54.600;9.842;2023-10-31T03:12:29;13.40;99.90
45849;DHT22;31567;54.600;9.842;2023-10-31T03:16:08;13.40;99.90
45849;DHT22;31567;54.600;9.842;2023-10-31T03:19:48;13.40;99.90
45849;DHT22;31567;54.600;9.842;2023-10-31T03:23:27;13.50;99.90
45849;DHT22;31567;54.600;9.842;2023-10-31T03:27:07;13.40;99.90
45849;DHT22;31567;54.600;9.842;2023-10-31T03:30:47;13.40;99.90
45849;DHT22;31567;54.600;9.842;2023-10-31T03:34:27;13.50;99.90
45849;DHT22;31567;54.600;9.842;2023-10-31T03:38:06;13.50;99.90
45849;DHT22;31567;54.600;9.842;2023-10-31T03:41:46;13.50;99.90
45849;DHT22;31567;54.600;9.842;2023-10-31T03:45:26;13.50;99.90
45849;DHT22;31567;54.600;9.842;2023-10-31T03:49:05;13.50;99.90
45849;DHT22;31567;54.600;9.842;2023-10-31T03:52:46;13.50;99.90
45849;DHT22;31567;54.600;9.842;2023-10-31T03:56:26;13.40;99.90
45849;DHT22;31567;54.600;9.842;2023-10-31T04:00:06;13.40;99.90
45849;DHT22;31567;54.600;9.842;2023-10-31T04:03:46;13.40;99.90
45849;DHT22;31567;54.600;9.842;2023-10-31T04:07:26;13.20;99.90
45849;DHT22;31567;54.600;9.842;2023-10-31T04:11:05;13.10;99.90
45849;DHT22;31567;54.600;9.842;2023-10-31T04:14:45;13.00;99.90
45849;DHT22;31567;54.600;9.842;2023-10-31T04:18:24;12.90;99.90
45849;DHT22;31567;54.600;9.842;2023-10-31T04:22:04;12.70;99.90
45849;DHT22;31567;54.600;9.842;2023-10-31T04:25:43;12.70;99.90
45849;DHT22;31567;54.600;9.842;2023-10-31T04:29:23;12.60;99.90
45849;DHT22;31567;54.600;9.842;2023-10-31T04:33:03;12.60;99.90
45849;DHT22;31567;54.600;9.842;2023-10-31T04:36:42;12.60;99.90
45849;DHT22;31567;54.600;9.842;2023-10-31T04:40:22;12.60;99.90
45849;DHT22;31567;54.600;9.842;2023-10-31T04:44:02;12.50;99.90
45849;DHT22;31567;54.600;9.842;2023-10-31T04:47:42;12.50;99.90
45849;DHT22;31567;54.600;9.842;2023-10-31T04:51:21;12.40;99.90
45849;DHT22;31567;54.600;9.842;2023-10-31T04:55:01;12.40;99.90
45849;DHT22;31567;54.600;9.842;2023-10-31T04:58:44;12.40;99.90
45849;DHT22;31567;54.600;9.842;2023-10-31T05:02:24;12.40;99.90
45849;DHT22;31567;54.600;9.842;2023-10-31T05:06:04;12.40;99.90
45849;DHT22;31567;54.600;9.842;2023-10-31T05:09:43;12.40;99.90
45849;DHT22;31567;54.600;9.842;2023-10-31T05:13:23;12.40;99.90
45849;DHT22;31567;54.600;9.842;2023-10-31T05:17:03;12.30;99.90
45849;DHT22;31567;54.600;9.842;2023-10-31T05:20:43;12.40;99.90
45849;DHT22;31567;54.600;9.842;2023-10-31T05:24:23;12.40;99.90
45849;DHT22;31567;54.600;9.842;2023-10-31T05:28:02;12.50;99.90
45849;DHT22;31567;54.600;9.842;2023-10-31T05:31:42;12.40;99.90
45849;DHT22;31567;54.600;9.842;2023-10-31T05:35:22;12.40;99.90
45849;DHT22;31567;54.600;9.842;2023-10-31T05:39:02;12.40;99.90
45849;DHT22;31567;54.600;9.842;2023-10-31T05:42:41;12.40;99.90
45849;DHT22;31567;54.600;9.842;2023-10-31T05:46:21;12.30;99.90
45849;DHT22;31567;54.600;9.842;2023-10-31T05:50:01;12.30;99.90
45849;DHT22;31567;54.600;9.842;2023-10-31T05:53:41;12.40;99.90
45849;DHT22;31567;54.600;9.842;2023-10-31T05:57:21;12.30;99.90
45849;DHT22;31567;54.600;9.842;2023-10-31T06:01:01;12.30;99.90
45849;DHT22;31567;54.600;9.842;2023-10-31T06:04:40;12.20;99.90
45849;DHT22;31567;54.600;9.842;2023-10-31T06:08:20;12.30;99.90
45849;DHT22;31567;54.600;9.842;2023-10-31T06:12:00;12.30;99.90
45849;DHT22;31567;54.600;9.842;2023-10-31T06:15:40;12.20;99.90
45849;DHT22;31567;54.600;9.842;2023-10-31T06:19:19;12.20;99.90
45849;DHT22;31567;54.600;9.842;2023-10-31T06:22:59;12.20;99.90
45849;DHT22;31567;54.600;9.842;2023-10-31T06:26:38;12.30;99.90
45849;DHT22;31567;54.600;9.842;2023-10-31T06:30:19;12.30;99.90
45849;DHT22;31567;54.600;9.842;2023-10-31T06:33:58;12.30;99.90
45849;DHT22;31567;54.600;9.842;2023-10-31T06:37:38;12.20;99.90
45849;DHT22;31567;54.600;9.842;2023-10-31T06:41:17;12.20;99.90
45849;DHT22;31567;54.600;9.842;2023-10-31T06:44:57;12.20;99.90
45849;DHT22;31567;54.600;9.842;2023-10-31T06:48:36;12.20;99.90
45849;DHT22;31567;54.600;9.842;2023-10-31T06:52:16;12.20;99.90
45849;DHT22;31567;54.600;9.842;2023-10-31T06:55:56;12.10;99.90
45849;DHT22;31567;54.600;9.842;2023-10-31T06:59:36;12.10;99.90
45849;DHT22;31567;54.600;9.842;2023-10-31T07:03:15;12.10;99.90
45849;DHT22;31567;54.600;9.842;2023-10-31T07:06:55;12.00;99.90
45849;DHT22;31567;54.600;9.842;2023-10-31T07:10:36;12.10;99.90
45849;DHT22;31567;54.600;9.842;2023-10-31T07:14:16;12.10;99.90
45849;DHT22;31567;54.600;9.842;2023-10-31T07:17:55;12.10;99.90
45849;DHT22;31567;54.600;9.842;2023-10-31T07:21:35;12.10;99.90
45849;DHT22;31567;54.600;9.842;2023-10-31T07:25:14;12.10;99.90
45849;DHT22;31567;54.600;9.842;2023-10-31T07:28:54;12.10;99.90
45849;DHT22;31567;54.600;9.842;2023-10-31T07:32:33;12.10;99.90
45849;DHT22;31567;54.600;9.842;2023-10-31T07:36:13;12.10;99.90
45849;DHT22;31567;54.600;9.842;2023-10-31T07:39:53;12.10;99.90
45849;DHT22;31567;54.600;9.842;2023-10-31T07:43:32;12.20;99.90
45849;DHT22;31567;54.600;9.842;2023-10-31T07:47:12;12.00;99.90
45849;DHT22;31567;54.600;9.842;2023-10-31T07:50:51;11.80;99.90
45849;DHT22;31567;54.600;9.842;2023-10-31T07:54:31;11.80;99.90
45849;DHT22;31567;54.600;9.842;2023-10-31T07:58:10;11.60;99.90
45849;DHT22;31567;54.600;9.842;2023-10-31T08:01:50;11.50;99.90
45849;DHT22;31567;54.600;9.842;2023-10-31T08:05:31;11.40;99.90
45849;DHT22;31567;54.600;9.842;2023-10-31T08:09:11;11.30;99.90
45849;DHT22;31567;54.600;9.842;2023-10-31T08:12:51;11.20;99.90
45849;DHT22;31567;54.600;9.842;2023-10-31T08:16:30;11.10;99.90
45849;DHT22;31567;54.600;9.842;2023-10-31T08:20:10;10.90;99.90
45849;DHT22;31567;54.600;9.842;2023-10-31T08:23:51;10.90;99.90
45849;DHT22;31567;54.600;9.842;2023-10-31T08:27:31;10.80;99.90
45849;DHT22;31567;54.600;9.842;2023-10-31T08:31:10;10.80;99.90
45849;DHT22;31567;54.600;9.842;2023-10-31T08:34:50;10.70;99.90
45849;DHT22;31567;54.600;9.842;2023-10-31T08:38:29;10.70;99.90
45849;DHT22;31567;54.600;9.842;2023-10-31T08:42:09;10.70;99.90
45849;DHT22;31567;54.600;9.842;2023-10-31T08:45:49;10.60;99.90
45849;DHT22;31567;54.600;9.842;2023-10-31T08:49:28;10.60;99.90
45849;DHT22;31567;54.600;9.842;2023-10-31T08:53:08;10.50;99.90
45849;DHT22;31567;54.600;9.842;2023-10-31T08:56:47;10.50;99.90
45849;DHT22;31567;54.600;9.842;2023-10-31T09:00:27;10.60;99.90
45849;DHT22;31567;54.600;9.842;2023-10-31T09:04:07;10.40;99.90
45849;DHT22;31567;54.600;9.842;2023-10-31T09:07:47;10.40;99.90
45849;DHT22;31567;54.600;9.842;2023-10-31T09:11:26;10.40;99.90
45849;DHT22;31567;54.600;9.842;2023-10-31T09:15:06;10.40;99.90
45849;DHT22;31567;54.600;9.842;2023-10-31T09:18:46;10.40;99.90
45849;DHT22;31567;54.600;9.842;2023-10-31T09:22:26;10.30;99.90
45849;DHT22;31567;54.600;9.842;2023-10-31T09:26:05;10.30;99.90
45849;DHT22;31567;54.600;9.842;2023-10-31T09:29:45;10.20;99.90
45849;DHT22;31567;54.600;9.842;2023-10-31T09:33:24;10.20;99.90
45849;DHT22;31567;54.600;9.842;2023-10-31T09:37:04;10.00;99.90
45849;DHT22;31567;54.600;9.842;2023-10-31T09:40:43;10.00;99.90
45849;DHT22;31567;54.600;9.842;2023-10-31T09:44:23;9.90;99.90
45849;DHT22;31567;54.600;9.842;2023-10-31T09:48:03;10.00;99.90
45849;DHT22;31567;54.600;9.842;2023-10-31T09:51:43;9.90;99.90
45849;DHT22;31567;54.600;9.842;2023-10-31T09:55:24;9.90;99.90
45849;DHT22;31567;54.600;9.842;2023-10-31T09:59:04;9.80;99.90
45849;DHT22;31567;54.600;9.842;2023-10-31T10:02:44;9.80;99.90
45849;DHT22;31567;54.600;9.842;2023-10-31T10:06:23;9.80;99.90
45849;DHT22;31567;54.600;9.842;2023-10-31T10:10:03;9.70;99.90
45849;DHT22;31567;54.600;9.842;2023-10-31T10:13:43;9.70;99.90
45849;DHT22;31567;54.600;9.842;2023-10-31T10:17:24;9.70;99.90
45849;DHT22;31567;54.600;9.842;2023-10-31T10:21:05;9.70;99.90
45849;DHT22;31567;54.600;9.842;2023-10-31T10:24:45;9.60;99.90
45849;DHT22;31567;54.600;9.842;2023-10-31T10:28:25;9.50;99.90
45849;DHT22;31567;54.600;9.842;2023-10-31T10:32:05;9.50;99.90
45849;DHT22;31567;54.600;9.842;2023-10-31T10:35:47;9.40;99.90
45849;DHT22;31567;54.600;9.842;2023-10-31T10:39:28;9.40;99.90
45849;DHT22;31567;54.600;9.842;2023-10-31T10:43:29;9.40;99.90
45849;DHT22;31567;54.600;9.842;2023-10-31T10:47:13;9.40;99.90
45849;DHT22;31567;54.600;9.842;2023-10-31T10:50:57;9.30;99.90
45849;DHT22;31567;54.600;9.842;2023-10-31T10:54:46;9.20;99.90
45849;DHT22;31567;54.600;9.842;2023-10-31T10:59:12;9.20;99.90
45849;DHT22;31567;54.600;9.842;2023-10-31T11:02:53;9.10;99.90
45849;DHT22;31567;54.600;9.842;2023-10-31T11:06:34;9.00;99.90
45849;DHT22;31567;54.600;9.842;2023-10-31T11:10:14;9.00;99.90
45849;DHT22;31567;54.600;9.842;2023-10-31T11:13:54;9.00;99.90
45849;DHT22;31567;54.600;9.842;2023-10-31T11:17:41;8.90;99.90
45849;DHT22;31567;54.600;9.842;2023-10-31T11:21:28;8.80;99.90
45849;DHT22;31567;54.600;9.842;2023-10-31T11:25:14;8.90;99.90
45849;DHT22;31567;54.600;9.842;2023-10-31T11:29:03;8.80;99.90
45849;DHT22;31567;54.600;9.842;2023-10-31T11:33:11;8.70;99.90
45849;DHT22;31567;54.600;9.842;2023-10-31T11:36:48;8.70;99.90
45849;DHT22;31567;54.600;9.842;2023-10-31T11:40:27;8.80;99.90
45849;DHT22;31567;54.600;9.842;2023-10-31T11:44:07;8.70;99.90
45849;DHT22;31567;54.600;9.842;2023-10-31T11:47:50;8.70;99.90
45849;DHT22;31567;54.600;9.842;2023-10-31T11:51:30;8.50;99.90
45849;DHT22;31567;54.600;9.842;2023-10-31T11:55:10;8.50;99.90
45849;DHT22;31567;54.600;9.842;2023-10-31T11:58:58;8.50;99.90
45849;DHT22;31567;54.600;9.842;2023-10-31T12:02:38;8.50;99.90
45849;DHT22;31567;54.600;9.842;2023-10-31T12:06:17;8.40;99.90
45849;DHT22;31567;54.600;9.842;2023-10-31T12:09:59;8.40;99.90
45849;DHT22;31567;54.600;9.842;2023-10-31T12:13:41;8.30;99.90
45849;DHT22;31567;54.600;9.842;2023-10-31T12:17:20;8.10;99.90
45849;DHT22;31567;54.600;9.842;2023-10-31T12:21:00;8.20;99.90
45849;DHT22;31567;54.600;9.842;2023-10-31T12:24:40;8.20;99.90
45849;DHT22;31567;54.600;9.842;2023-10-31T12:28:21;8.20;99.90
45849;DHT22;31567;54.600;9.842;2023-10-31T12:32:01;8.20;99.90
45849;DHT22;31567;54.600;9.842;2023-10-31T12:35:42;8.20;99.90
45849;DHT22;31567;54.600;9.842;2023-10-31T12:39:26;8.20;99.90
45849;DHT22;31567;54.600;9.842;2023-10-31T12:43:07;8.20;99.90
45849;DHT22;31567;54.600;9.842;2023-10-31T12:46:47;8.30;99.90
45849;DHT22;31567;54.600;9.842;2023-10-31T12:50:26;8.20;99.90
45849;DHT22;31567;54.600;9.842;2023-10-31T12:54:06;8.30;99.90
45849;DHT22;31567;54.600;9.842;2023-10-31T12:57:47;8.30;99.90
45849;DHT22;31567;54.600;9.842;2023-10-31T13:01:27;8.20;99.90
45849;DHT22;31567;54.600;9.842;2023-10-31T13:05:13;8.20;99.90
45849;DHT22;31567;54.600;9.842;2023-10-31T13:08:58;8.00;99.90
45849;DHT22;31567;54.600;9.842;2023-10-31T13:12:38;8.10;99.90
45849;DHT22;31567;54.600;9.842;2023-10-31T13:16:17;8.10;99.90
45849;DHT22;31567;54.600;9.842;2023-10-31T13:19:57;8.00;99.90
45849;DHT22;31567;54.600;9.842;2023-10-31T13:23:36;8.00;99.90
45849;DHT22;31567;54.600;9.842;2023-10-31T13:27:17;7.90;99.90
45849;DHT22;31567;54.600;9.842;2023-10-31T13:30:57;8.00;99.90
45849;DHT22;31567;54.600;9.842;2023-10-31T13:34:37;8.00;99.90
45849;DHT22;31567;54.600;9.842;2023-10-31T13:38:16;8.00;99.90
45849;DHT22;31567;54.600;9.842;2023-10-31T13:41:56;7.90;99.90
45849;DHT22;31567;54.600;9.842;2023-10-31T13:45:35;7.80;99.90
45849;DHT22;31567;54.600;9.842;2023-10-31T13:49:15;7.80;99.90
45849;DHT22;31567;54.600;9.842;2023-10-31T13:52:55;7.70;99.90
45849;DHT22;31567;54.600;9.842;2023-10-31T13:56:35;7.70;99.90
45849;DHT22;31567;54.600;9.842;2023-10-31T14:00:15;7.70;99.90
45849;DHT22;31567;54.600;9.842;2023-10-31T14:03:54;7.70;99.90
45849;DHT22;31567;54.600;9.842;2023-10-31T14:07:34;7.70;99.90
45849;DHT22;31567;54.600;9.842;2023-10-31T14:11:14;7.70;99.90
45849;DHT22;31567;54.600;9.842;2023-10-31T14:14:54;7.70;99.90
45849;DHT22;31567;54.600;9.842;2023-10-31T14:18:34;7.60;99.90
45849;DHT22;31567;54.600;9.842;2023-10-31T14:22:14;7.70;99.90
45849;DHT22;31567;54.600;9.842;2023-10-31T14:25:53;7.80;99.90
45849;DHT22;31567;54.600;9.842;2023-10-31T14:29:33;7.70;99.90
45849;DHT22;31567;54.600;9.842;2023-10-31T14:33:12;7.70;99.90
45849;DHT22;31567;54.600;9.842;2023-10-31T14:36:53;7.70;99.90
45849;DHT22;31567;54.600;9.842;2023-10-31T14:40:32;7.70;99.90
45849;DHT22;31567;54.600;9.842;2023-10-31T14:44:12;7.70;99.90
45849;DHT22;31567;54.600;9.842;2023-10-31T14:47:52;7.70;99.90
45849;DHT22;31567;54.600;9.842;2023-10-31T14:51:32;7.70;99.90
45849;DHT22;31567;54.600;9.842;2023-10-31T14:55:12;7.70;99.90
45849;DHT22;31567;54.600;9.842;2023-10-31T14:58:51;7.70;99.90
45849;DHT22;31567;54.600;9.842;2023-10-31T15:02:31;7.70;99.90
45849;DHT22;31567;54.600;9.842;2023-10-31T15:06:10;7.60;99.90
45849;DHT22;31567;54.600;9.842;2023-10-31T15:09:50;7.60;99.90
45849;DHT22;31567;54.600;9.842;2023-10-31T15:13:30;7.60;99.90
45849;DHT22;31567;54.600;9.842;2023-10-31T15:17:10;7.60;99.90
45849;DHT22;31567;54.600;9.842;2023-10-31T15:20:50;7.60;99.90
45849;DHT22;31567;54.600;9.842;2023-10-31T15:24:29;7.70;99.90
45849;DHT22;31567;54.600;9.842;2023-10-31T15:28:09;7.70;99.90
45849;DHT22;31567;54.600;9.842;2023-10-31T15:31:49;7.70;99.80
45849;DHT22;31567;54.600;9.842;2023-10-31T15:35:33;7.70;99.70
45849;DHT22;31567;54.600;9.842;2023-10-31T15:39:14;7.50;99.20
45849;DHT22;31567;54.600;9.842;2023-10-31T15:42:53;7.50;98.90
45849;DHT22;31567;54.600;9.842;2023-10-31T15:46:33;7.40;98.80
45849;DHT22;31567;54.600;9.842;2023-10-31T15:50:16;7.40;99.00
45849;DHT22;31567;54.600;9.842;2023-10-31T15:53:56;7.40;99.20
45849;DHT22;31567;54.600;9.842;2023-10-31T15:57:35;7.40;99.30
45849;DHT22;31567;54.600;9.842;2023-10-31T16:01:15;7.40;99.50
45849;DHT22;31567;54.600;9.842;2023-10-31T16:04:55;7.40;99.60
45849;DHT22;31567;54.600;9.842;2023-10-31T16:08:35;7.40;99.70
45849;DHT22;31567;54.600;9.842;2023-10-31T16:12:19;7.40;99.80
45849;DHT22;31567;54.600;9.842;2023-10-31T16:15:58;7.20;99.70
45849;DHT22;31567;54.600;9.842;2023-10-31T16:19:38;7.20;99.80
45849;DHT22;31567;54.600;9.842;2023-10-31T16:23:18;7.20;99.80
45849;DHT22;31567;54.600;9.842;2023-10-31T16:26:59;7.10;99.80
45849;DHT22;31567;54.600;9.842;2023-10-31T16:30:39;7.10;99.90
45849;DHT22;31567;54.600;9.842;2023-10-31T16:34:18;7.10;99.90
45849;DHT22;31567;54.600;9.842;2023-10-31T16:37:58;7.00;99.90
45849;DHT22;31567;54.600;9.842;2023-10-31T16:41:38;6.90;99.90
45849;DHT22;31567;54.600;9.842;2023-10-31T16:45:17;6.90;99.90
45849;DHT22;31567;54.600;9.842;2023-10-31T16:48:57;6.90;99.90
45849;DHT22;31567;54.600;9.842;2023-10-31T16:52:36;6.90;99.90
45849;DHT22;31567;54.600;9.842;2023-10-31T16:56:16;6.90;99.90
45849;DHT22;31567;54.600;9.842;2023-10-31T16:59:56;6.90;99.90
45849;DHT22;31567;54.600;9.842;2023-10-31T17:03:36;6.90;99.90
45849;DHT22;31567;54.600;9.842;2023-10-31T17:07:15;6.80;99.90
45849;DHT22;31567;54.600;9.842;2023-10-31T17:10:55;6.80;99.90
45849;DHT22;31567;54.600;9.842;2023-10-31T17:14:34;6.80;99.90
45849;DHT22;31567;54.600;9.842;2023-10-31T17:18:14;6.80;99.90
45849;DHT22;31567;54.600;9.842;2023-10-31T17:21:55;6.70;99.90
45849;DHT22;31567;54.600;9.842;2023-10-31T17:25:35;6.70;99.90
45849;DHT22;31567;54.600;9.842;2023-10-31T17:29:14;6.70;99.90
45849;DHT22;31567;54.600;9.842;2023-10-31T17:32:54;6.70;99.90
45849;DHT22;31567;54.600;9.842;2023-10-31T17:36:34;6.60;99.90
45849;DHT22;31567;54.600;9.842;2023-10-31T17:40:13;6.60;99.90
45849;DHT22;31567;54.600;9.842;2023-10-31T17:43:53;6.50;99.90
45849;DHT22;31567;54.600;9.842;2023-10-31T17:47:32;6.50;99.90
45849;DHT22;31567;54.600;9.842;2023-10-31T17:51:12;6.50;99.90
45849;DHT22;31567;54.600;9.842;2023-10-31T17:54:51;6.40;99.90
45849;DHT22;31567;54.600;9.842;2023-10-31T17:58:32;6.40;99.90
45849;DHT22;31567;54.600;9.842;2023-10-31T18:02:13;6.30;99.90
45849;DHT22;31567;54.600;9.842;2023-10-31T18:05:52;6.30;99.90
45849;DHT22;31567;54.600;9.842;2023-10-31T18:09:32;6.30;99.90
45849;DHT22;31567;54.600;9.842;2023-10-31T18:13:12;6.30;99.90
45849;DHT22;31567;54.600;9.842;2023-10-31T18:16:51;6.30;99.90
45849;DHT22;31567;54.600;9.842;2023-10-31T18:20:31;6.20;99.90
45849;DHT22;31567;54.600;9.842;2023-10-31T18:24:10;6.30;99.90
45849;DHT22;31567;54.600;9.842;2023-10-31T18:27:50;6.20;99.90
45849;DHT22;31567;54.600;9.842;2023-10-31T18:31:29;6.20;99.90
45849;DHT22;31567;54.600;9.842;2023-10-31T18:35:10;6.10;99.90
45849;DHT22;31567;54.600;9.842;2023-10-31T18:38:49;6.00;99.90
45849;DHT22;31567;54.600;9.842;2023-10-31T18:42:29;6.00;99.90
45849;DHT22;31567;54.600;9.842;2023-10-31T18:46:11;6.00;99.90
45849;DHT22;31567;54.600;9.842;2023-10-31T18:49:51;6.00;99.90
45849;DHT22;31567;54.600;9.842;2023-10-31T18:53:31;5.90;99.90
45849;DHT22;31567;54.600;9.842;2023-10-31T18:57:10;6.00;99.90
45849;DHT22;31567;54.600;9.842;2023-10-31T19:00:50;5.90;99.90
45849;DHT22;31567;54.600;9.842;2023-10-31T19:04:29;5.90;99.90
45849;DHT22;31567;54.600;9.842;2023-10-31T19:08:09;6.00;99.90
45849;DHT22;31567;54.600;9.842;2023-10-31T19:11:48;5.90;99.90
45849;DHT22;31567;54.600;9.842;2023-10-31T19:15:28;5.90;99.90
45849;DHT22;31567;54.600;9.842;2023-10-31T19:19:08;5.90;99.90
45849;DHT22;31567;54.600;9.842;2023-10-31T19:22:47;5.90;99.90
45849;DHT22;31567;54.600;9.842;2023-10-31T19:26:27;5.90;99.90
45849;DHT22;31567;54.600;9.842;2023-10-31T19:30:07;5.80;99.90
45849;DHT22;31567;54.600;9.842;2023-10-31T19:33:47;5.80;99.90
45849;DHT22;31567;54.600;9.842;2023-10-31T19:37:27;5.80;99.90
45849;DHT22;31567;54.600;9.842;2023-10-31T19:41:06;5.80;99.90
45849;DHT22;31567;54.600;9.842;2023-10-31T19:44:47;5.80;99.90
45849;DHT22;31567;54.600;9.842;2023-10-31T19:48:26;5.80;99.90
45849;DHT22;31567;54.600;9.842;2023-10-31T19:52:06;5.70;99.90
45849;DHT22;31567;54.600;9.842;2023-10-31T19:55:45;5.70;99.90
45849;DHT22;31567;54.600;9.842;2023-10-31T19:59:25;5.70;99.90
45849;DHT22;31567;54.600;9.842;2023-10-31T20:03:04;5.70;99.90
45849;DHT22;31567;54.600;9.842;2023-10-31T20:06:44;5.60;99.90
45849;DHT22;31567;54.600;9.842;2023-10-31T20:10:24;5.70;99.90
45849;DHT22;31567;54.600;9.842;2023-10-31T20:14:03;5.60;99.90
45849;DHT22;31567;54.600;9.842;2023-10-31T20:17:43;5.60;99.90
45849;DHT22;31567;54.600;9.842;2023-10-31T20:21:23;5.60;99.90
45849;DHT22;31567;54.600;9.842;2023-10-31T20:25:03;5.60;99.90
45849;DHT22;31567;54.600;9.842;2023-10-31T20:28:43;5.50;99.90
45849;DHT22;31567;54.600;9.842;2023-10-31T20:32:22;5.50;99.90
45849;DHT22;31567;54.600;9.842;2023-10-31T20:36:02;5.50;99.90
45849;DHT22;31567;54.600;9.842;2023-10-31T20:39:41;5.40;99.90
45849;DHT22;31567;54.600;9.842;2023-10-31T20:43:21;5.50;99.90
45849;DHT22;31567;54.600;9.842;2023-10-31T20:47:01;5.50;99.90
45849;DHT22;31567;54.600;9.842;2023-10-31T20:50:40;5.50;99.90
45849;DHT22;31567;54.600;9.842;2023-10-31T20:54:20;5.40;99.90
45849;DHT22;31567;54.600;9.842;2023-10-31T20:57:59;5.50;99.90
45849;DHT22;31567;54.600;9.842;2023-10-31T21:01:39;5.40;99.90
45849;DHT22;31567;54.600;9.842;2023-10-31T21:05:18;5.40;99.90
45849;DHT22;31567;54.600;9.842;2023-10-31T21:08:58;5.40;99.90
45849;DHT22;31567;54.600;9.842;2023-10-31T21:12:37;5.40;99.90
45849;DHT22;31567;54.600;9.842;2023-10-31T21:16:17;5.30;99.90
45849;DHT22;31567;54.600;9.842;2023-10-31T21:19:57;5.30;99.90
45849;DHT22;31567;54.600;9.842;2023-10-31T21:23:36;5.40;99.90
45849;DHT22;31567;54.600;9.842;2023-10-31T21:27:16;5.30;99.90
45849;DHT22;31567;54.600;9.842;2023-10-31T21:30:55;5.30;99.90
45849;DHT22;31567;54.600;9.842;2023-10-31T21:34:35;5.20;99.90
45849;DHT22;31567;54.600;9.842;2023-10-31T21:38:14;5.20;99.90
45849;DHT22;31567;54.600;9.842;2023-10-31T21:41:54;5.10;99.90
45849;DHT22;31567;54.600;9.842;2023-10-31T21:45:34;5.10;99.90
45849;DHT22;31567;54.600;9.842;2023-10-31T21:49:13;5.10;99.90
45849;DHT22;31567;54.600;9.842;2023-10-31T21:52:53;5.10;99.90
45849;DHT22;31567;54.600;9.842;2023-10-31T21:56:32;5.10;99.90
45849;DHT22;31567;54.600;9.842;2023-10-31T22:00:12;5.00;99.90
45849;DHT22;31567;54.600;9.842;2023-10-31T22:03:52;5.00;99.90
45849;DHT22;31567;54.600;9.842;2023-10-31T22:07:31;5.00;99.90
45849;DHT22;31567;54.600;9.842;2023-10-31T22:11:11;5.00;99.90
45849;DHT22;31567;54.600;9.842;2023-10-31T22:14:51;5.00;99.90
45849;DHT22;31567;54.600;9.842;2023-10-31T22:18:30;5.00;99.90
45849;DHT22;31567;54.600;9.842;2023-10-31T22:22:10;5.10;99.90
45849;DHT22;31567;54.600;9.842;2023-10-31T22:25:49;5.10;99.90
45849;DHT22;31567;54.600;9.842;2023-10-31T22:29:29;5.10;99.90
45849;DHT22;31567;54.600;9.842;2023-10-31T22:33:09;5.10;99.90
45849;DHT22;31567;54.600;9.842;2023-10-31T22:36:48;5.10;99.90
45849;DHT22;31567;54.600;9.842;2023-10-31T22:40:28;5.00;99.90
45849;DHT22;31567;54.600;9.842;2023-10-31T22:44:07;5.10;99.90
45849;DHT22;31567;54.600;9.842;2023-10-31T22:47:48;5.00;99.90
45849;DHT22;31567;54.600;9.842;2023-10-31T22:51:27;5.10;99.90
45849;DHT22;31567;54.600;9.842;2023-10-31T22:55:07;5.00;99.90
45849;DHT22;31567;54.600;9.842;2023-10-31T22:58:47;5.00;99.90
45849;DHT22;31567;54.600;9.842;2023-10-31T23:02:26;5.00;99.90
45849;DHT22;31567;54.600;9.842;2023-10-31T23:06:06;4.90;99.90
45849;DHT22;31567;54.600;9.842;2023-10-31T23:09:46;4.80;99.90
45849;DHT22;31567;54.600;9.842;2023-10-31T23:13:25;4.70;99.90
45849;DHT22;31567;54.600;9.842;2023-10-31T23:17:05;4.70;99.90
45849;DHT22;31567;54.600;9.842;2023-10-31T23:20:44;4.60;99.90
45849;DHT22;31567;54.600;9.842;2023-10-31T23:24:24;4.60;99.90